Time;durP1;ratioP1;P1;durP2;ratioP2;P2;SDS_P1;SDS_P2;PMS_P1;PMS_P2;Temp;Humidity;BMP_temperature;BMP_pressure;BME280_temperature;BME280_humidity;BME280_pressure;Samples;Min_cycle;Max_cycle;Signal;HPM_P1;HPM_P2
2022/05/18 00:01:59;;;;;;;3.13;2.00;;;19.90;52.50;;;;;;5042335;28;20044;-81
2022/05/18 00:04:26;;;;;;;3.65;2.10;;;19.90;52.60;;;;;;5057055;28;20495;-81
2022/05/18 00:06:51;;;;;;;2.20;1.70;;;19.90;52.70;;;;;;5060049;28;20043;-81
2022/05/18 00:09:17;;;;;;;4.53;2.20;;;19.80;52.90;;;;;;5031960;28;20033;-81
2022/05/18 00:11:43;;;;;;;4.13;1.97;;;19.80;53.00;;;;;;5064700;28;20281;-81
2022/05/18 00:14:09;;;;;;;3.83;1.92;;;19.70;53.20;;;;;;5046998;28;20090;-80
2022/05/18 00:16:35;;;;;;;3.67;2.07;;;19.70;53.20;;;;;;5061130;28;20072;-81
2022/05/18 00:19:01;;;;;;;3.90;2.17;;;19.70;53.40;;;;;;5041480;28;20045;-81
2022/05/18 00:21:27;;;;;;;3.47;2.05;;;19.60;53.60;;;;;;5063910;28;20102;-81
2022/05/18 00:23:53;;;;;;;3.07;1.80;;;19.60;53.70;;;;;;5017062;28;20020;-80
2022/05/18 00:26:19;;;;;;;3.30;2.00;;;19.60;53.80;;;;;;5044493;28;20108;-81
2022/05/18 00:28:45;;;;;;;4.68;2.08;;;19.50;53.80;;;;;;5052077;28;20046;-80
2022/05/18 00:31:17;;;;;;;2.90;2.00;;;19.50;53.90;;;;;;5050230;28;20044;-81
2022/05/18 00:33:42;;;;;;;4.50;1.73;;;19.50;54.60;;;;;;5058351;28;20028;-81
2022/05/18 00:36:08;;;;;;;2.72;1.88;;;19.50;54.00;;;;;;5060138;28;20028;-81
2022/05/18 00:38:34;;;;;;;2.83;1.80;;;19.50;54.90;;;;;;5031163;28;20064;-81
2022/05/18 00:40:59;;;;;;;3.80;2.10;;;19.50;54.30;;;;;;5036163;28;20309;-80
2022/05/18 00:43:31;;;;;;;5.07;2.07;;;19.40;54.30;;;;;;5040047;28;20080;-80
2022/05/18 00:46:02;;;;;;;2.90;1.92;;;19.40;55.30;;;;;;5049754;28;20631;-81
2022/05/18 00:48:29;;;;;;;4.00;2.00;;;19.30;55.10;;;;;;5040948;28;20040;-80
2022/05/18 00:50:58;;;;;;;3.33;2.03;;;19.30;54.60;;;;;;5054965;28;20505;-81
2022/05/18 00:53:41;;;;;;;4.80;1.95;;;19.30;54.90;;;;;;5040734;28;20041;-80
2022/05/18 00:56:12;;;;;;;3.47;2.10;;;19.30;55.70;;;;;;5067130;28;20087;-80
2022/05/18 00:58:57;;;;;;;1.98;1.70;;;19.20;55.10;;;;;;5064427;28;20060;-80
2022/05/18 01:01:24;;;;;;;2.97;1.85;;;19.20;55.90;;;;;;5056765;28;20032;-79
2022/05/18 01:03:51;;;;;;;4.22;1.95;;;19.20;55.70;;;;;;5054031;28;20037;-79
2022/05/18 01:06:38;;;;;;;3.35;1.90;;;19.20;55.30;;;;;;5076868;28;20043;-79
2022/05/18 01:09:05;;;;;;;2.40;1.70;;;19.20;57.10;;;;;;5043733;28;20072;-79
2022/05/18 01:11:34;;;;;;;3.80;2.00;;;19.20;55.60;;;;;;5063127;28;20048;-79
2022/05/18 01:14:01;;;;;;;3.00;1.77;;;19.20;55.70;;;;;;5057306;28;20710;-79
2022/05/18 01:16:27;;;;;;;3.95;2.00;;;19.20;55.70;;;;;;5068114;28;20040;-79
2022/05/18 01:18:56;;;;;;;3.25;2.10;;;19.10;55.70;;;;;;5057734;28;20063;-79
2022/05/18 01:21:34;;;;;;;3.10;1.90;;;19.10;56.10;;;;;;5079949;28;20044;-79
2022/05/18 01:24:10;;;;;;;4.57;1.90;;;19.10;56.30;;;;;;5072456;28;20032;-79
2022/05/18 01:26:43;;;;;;;2.85;1.80;;;19.10;56.80;;;;;;5042749;28;20028;-79
2022/05/18 01:29:10;;;;;;;3.30;1.75;;;19.10;56.30;;;;;;5076700;28;20115;-79
2022/05/18 01:31:58;;;;;;;2.90;1.90;;;19.10;56.50;;;;;;5048673;28;20055;-79
2022/05/18 01:34:27;;;;;;;3.00;1.57;;;19.10;58.40;;;;;;5069010;28;20028;-79
2022/05/18 01:36:53;;;;;;;4.07;2.10;;;19.10;56.80;;;;;;5074669;28;20317;-79
2022/05/18 01:39:58;;;;;;;3.03;1.83;;;19.10;56.70;;;;;;5057780;28;20052;-79
2022/05/18 01:42:43;;;;;;;4.57;2.00;;;19.20;58.60;;;;;;5055361;28;20043;-79
2022/05/18 01:45:09;;;;;;;4.25;2.08;;;19.10;58.40;;;;;;5073992;28;20024;-79
2022/05/18 01:47:37;;;;;;;2.90;1.90;;;19.10;56.70;;;;;;5076725;28;20413;-79
2022/05/18 01:50:07;;;;;;;3.33;1.90;;;19.20;57.00;;;;;;5057292;28;20037;-79
2022/05/18 01:52:34;;;;;;;2.92;1.88;;;19.20;57.10;;;;;;5052278;28;20039;-79
2022/05/18 01:54:59;;;;;;;2.40;1.77;;;19.30;57.00;;;;;;5054745;28;20077;-79
2022/05/18 01:57:25;;;;;;;2.97;1.90;;;19.30;57.00;;;;;;5042335;28;20075;-79
2022/05/18 01:59:51;;;;;;;3.20;2.10;;;19.30;57.20;;;;;;5047949;28;20222;-79
2022/05/18 02:02:17;;;;;;;2.97;1.70;;;19.30;57.20;;;;;;5053444;28;20391;-79
2022/05/18 02:04:43;;;;;;;2.50;2.00;;;19.30;57.30;;;;;;5048448;28;20126;-79
2022/05/18 02:07:09;;;;;;;3.47;1.88;;;19.30;57.30;;;;;;5068252;28;20043;-79
2022/05/18 02:09:35;;;;;;;2.47;1.70;;;19.30;57.30;;;;;;5059206;28;20032;-79
2022/05/18 02:12:01;;;;;;;3.88;1.70;;;19.30;57.30;;;;;;5040518;28;20043;-79
2022/05/18 02:14:27;;;;;;;2.72;1.80;;;19.30;57.40;;;;;;5081162;28;20029;-79
2022/05/18 02:16:53;;;;;;;2.57;1.60;;;19.40;57.30;;;;;;5073622;28;20639;-79
2022/05/18 02:19:19;;;;;;;2.37;1.50;;;19.40;57.30;;;;;;5065853;28;20301;-79
2022/05/18 02:21:45;;;;;;;2.08;1.60;;;19.40;57.20;;;;;;5072801;28;20029;-79
2022/05/18 02:24:11;;;;;;;2.78;1.50;;;19.50;57.20;;;;;;5056316;28;20036;-79
2022/05/18 02:26:37;;;;;;;2.70;1.30;;;19.50;57.00;;;;;;5033276;28;20035;-79
2022/05/18 02:29:04;;;;;;;3.65;1.50;;;19.50;57.00;;;;;;5057148;28;20190;-79
2022/05/18 02:31:29;;;;;;;2.78;1.50;;;19.50;57.00;;;;;;5067863;28;20047;-79
2022/05/18 02:33:55;;;;;;;2.60;1.50;;;19.60;57.00;;;;;;5056159;28;20037;-79
2022/05/18 02:36:21;;;;;;;2.42;1.30;;;19.60;56.90;;;;;;5063542;28;20100;-79
2022/05/18 02:38:47;;;;;;;2.37;1.50;;;19.70;56.90;;;;;;5054107;28;20036;-79
2022/05/18 02:41:12;;;;;;;2.47;1.20;;;19.70;56.90;;;;;;5068035;28;20033;-79
2022/05/18 02:43:38;;;;;;;2.17;1.30;;;19.80;56.90;;;;;;5037323;28;20032;-79
2022/05/18 02:46:14;;;;;;;2.80;1.60;;;19.80;57.00;;;;;;5056741;28;20151;-79
2022/05/18 02:48:40;;;;;;;2.58;1.40;;;19.80;57.70;;;;;;5055979;28;20031;-79
2022/05/18 02:51:07;;;;;;;1.90;1.23;;;19.90;57.10;;;;;;5049168;28;20048;-79
2022/05/18 02:53:33;;;;;;;1.80;1.30;;;19.90;57.10;;;;;;5076714;28;20063;-79
2022/05/18 02:56:07;;;;;;;2.90;1.40;;;19.90;57.10;;;;;;5074806;28;20044;-79
2022/05/18 02:58:33;;;;;;;2.33;1.40;;;19.90;57.10;;;;;;5043003;28;20039;-79
2022/05/18 03:01:00;;;;;;;2.53;1.40;;;19.90;57.20;;;;;;5054652;28;20032;-79
2022/05/18 03:03:27;;;;;;;2.95;1.40;;;19.90;57.70;;;;;;5085528;28;20028;-79
2022/05/18 03:05:53;;;;;;;1.80;1.27;;;19.90;57.10;;;;;;5034256;28;20299;-79
2022/05/18 03:08:19;;;;;;;1.83;1.37;;;19.90;57.00;;;;;;5068173;28;20032;-79
2022/05/18 03:10:44;;;;;;;2.22;1.50;;;19.90;57.00;;;;;;5065154;28;20560;-79
2022/05/18 03:13:10;;;;;;;2.47;1.50;;;19.90;57.70;;;;;;5060511;28;20036;-79
2022/05/18 03:15:36;;;;;;;3.17;1.65;;;19.90;57.00;;;;;;5052242;28;20044;-79
2022/05/18 03:18:02;;;;;;;2.35;1.40;;;19.90;57.10;;;;;;5047816;28;20050;-79
2022/05/18 03:25:56;;;;;;;2.33;1.30;;;19.70;57.00;;;;;;5071442;28;20036;-79
2022/05/18 03:28:22;;;;;;;2.47;1.40;;;19.70;57.80;;;;;;5075911;28;20059;-79
2022/05/18 03:30:47;;;;;;;3.00;1.40;;;19.60;57.10;;;;;;5036726;28;20028;-79
2022/05/18 03:33:13;;;;;;;2.13;1.30;;;19.60;57.20;;;;;;5075420;28;20042;-79
2022/05/18 03:35:39;;;;;;;3.05;1.60;;;19.50;57.20;;;;;;5062545;28;20036;-79
2022/05/18 03:38:05;;;;;;;2.03;1.40;;;19.50;57.30;;;;;;5073869;28;20033;-79
2022/05/18 03:40:36;;;;;;;2.67;1.50;;;19.50;57.40;;;;;;5070000;28;20032;-79
2022/05/18 03:43:03;;;;;;;2.90;1.40;;;19.40;57.50;;;;;;5075306;28;20229;-79
2022/05/18 03:45:29;;;;;;;1.65;1.30;;;19.40;57.50;;;;;;5055619;28;20405;-79
2022/05/18 03:47:55;;;;;;;3.40;1.50;;;19.30;57.70;;;;;;5072071;28;20386;-79
2022/05/18 03:50:21;;;;;;;2.45;1.50;;;19.30;57.80;;;;;;5069350;28;20067;-79
2022/05/18 03:52:46;;;;;;;2.73;1.30;;;19.20;57.80;;;;;;5045887;28;20032;-79
2022/05/18 03:55:12;;;;;;;2.10;1.40;;;19.20;58.00;;;;;;5073987;28;20044;-79
2022/05/18 03:57:38;;;;;;;3.07;1.50;;;19.20;58.10;;;;;;5066070;28;20033;-79
2022/05/18 04:00:06;;;;;;;2.67;1.63;;;19.20;58.20;;;;;;5057206;28;20037;-79
2022/05/18 04:02:32;;;;;;;2.38;1.45;;;19.20;58.50;;;;;;5061385;28;20066;-79
2022/05/18 04:04:57;;;;;;;2.10;1.50;;;19.20;58.60;;;;;;5052885;28;20731;-79
2022/05/18 04:07:23;;;;;;;2.40;1.63;;;19.20;58.70;;;;;;5045990;28;20029;-79
2022/05/18 04:09:49;;;;;;;2.70;1.30;;;19.20;58.70;;;;;;5074956;28;20225;-79
2022/05/18 04:12:14;;;;;;;2.00;1.42;;;19.20;58.90;;;;;;5074248;28;20032;-79
2022/05/18 04:14:40;;;;;;;2.40;1.40;;;19.30;58.90;;;;;;5060987;28;20028;-79
2022/05/18 04:17:05;;;;;;;2.17;1.40;;;19.30;59.00;;;;;;5056447;28;20492;-79
2022/05/18 04:19:31;;;;;;;2.75;1.50;;;19.30;59.00;;;;;;5072459;28;20041;-79
2022/05/18 04:21:57;;;;;;;2.63;1.40;;;19.30;59.10;;;;;;5046231;28;20517;-79
2022/05/18 04:24:22;;;;;;;2.45;1.60;;;19.40;59.30;;;;;;5074570;28;20232;-79
2022/05/18 04:26:48;;;;;;;2.00;1.40;;;19.40;59.30;;;;;;5049619;28;20323;-79
2022/05/18 04:29:14;;;;;;;1.92;1.50;;;19.50;59.40;;;;;;5073895;28;20544;-79
2022/05/18 04:31:41;;;;;;;3.10;1.67;;;19.40;59.50;;;;;;5050324;28;20042;-79
2022/05/18 04:34:07;;;;;;;2.78;1.70;;;19.50;59.70;;;;;;5073504;28;20024;-79
2022/05/18 04:36:33;;;;;;;2.20;1.50;;;19.50;59.80;;;;;;5060891;28;20046;-79
2022/05/18 04:38:58;;;;;;;4.18;1.48;;;19.60;59.90;;;;;;5057143;28;20257;-79
2022/05/18 04:41:24;;;;;;;3.30;1.50;;;19.60;59.80;;;;;;5055814;28;20029;-79
2022/05/18 04:43:50;;;;;;;2.67;1.47;;;19.70;59.80;;;;;;5082315;28;20101;-79
2022/05/18 04:46:15;;;;;;;3.93;1.50;;;19.70;59.70;;;;;;5040110;28;20346;-79
2022/05/18 04:48:42;;;;;;;3.47;1.40;;;19.70;59.80;;;;;;5054525;28;20033;-79
2022/05/18 04:51:08;;;;;;;1.90;1.50;;;19.80;60.00;;;;;;5061188;28;20032;-79
2022/05/18 04:53:34;;;;;;;3.15;1.45;;;19.80;60.00;;;;;;5063777;28;20044;-79
2022/05/18 04:56:00;;;;;;;3.10;1.45;;;19.90;60.00;;;;;;5060459;28;20025;-79
2022/05/18 04:58:25;;;;;;;1.53;1.40;;;19.90;59.90;;;;;;5068345;28;20028;-79
2022/05/18 05:00:59;;;;;;;2.58;1.50;;;20.00;59.90;;;;;;5049993;28;20133;-79
2022/05/18 05:03:25;;;;;;;2.63;1.45;;;20.00;60.50;;;;;;5042953;28;20708;-79
2022/05/18 05:05:52;;;;;;;5.30;1.67;;;20.10;60.00;;;;;;5032132;28;20037;-79
2022/05/18 05:08:18;;;;;;;3.27;1.37;;;20.10;60.10;;;;;;5061078;28;20615;-79
2022/05/18 05:10:43;;;;;;;2.13;1.50;;;20.20;60.20;;;;;;5044049;28;20029;-79
2022/05/18 05:13:09;;;;;;;2.47;1.45;;;20.20;61.00;;;;;;5070233;28;20037;-79
2022/05/18 05:15:36;;;;;;;1.73;1.40;;;20.20;60.20;;;;;;5074105;28;20048;-79
2022/05/18 05:18:01;;;;;;;2.22;1.58;;;20.20;60.40;;;;;;5045326;28;20047;-79
2022/05/18 05:20:27;;;;;;;2.77;1.40;;;20.30;60.40;;;;;;5034759;28;20029;-79
2022/05/18 05:22:54;;;;;;;2.03;1.40;;;20.30;61.30;;;;;;5044206;28;20460;-79
2022/05/18 05:25:20;;;;;;;3.67;1.20;;;20.30;60.70;;;;;;5058074;28;20558;-79
2022/05/18 05:27:46;;;;;;;2.83;1.50;;;20.30;60.70;;;;;;5076773;28;20512;-79
2022/05/18 05:30:12;;;;;;;2.40;1.45;;;20.40;60.60;;;;;;5054648;28;20033;-79
2022/05/18 05:32:39;;;;;;;2.17;1.50;;;20.40;60.90;;;;;;5073755;28;20033;-79
2022/05/18 05:35:06;;;;;;;3.43;1.70;;;20.50;61.00;;;;;;5032678;28;20029;-79
2022/05/18 05:37:32;;;;;;;3.13;1.30;;;20.50;61.10;;;;;;5045968;28;20029;-79
2022/05/18 05:39:58;;;;;;;1.63;1.20;;;20.60;61.00;;;;;;5045134;28;20244;-79
2022/05/18 05:42:24;;;;;;;2.70;1.37;;;20.60;60.80;;;;;;5061702;28;20040;-79
2022/05/18 05:44:50;;;;;;;1.67;1.30;;;20.70;60.90;;;;;;5054469;28;20028;-79
2022/05/18 05:47:16;;;;;;;1.83;1.30;;;20.80;61.00;;;;;;5070169;28;20233;-79
2022/05/18 05:49:42;;;;;;;2.07;1.33;;;20.80;61.10;;;;;;5047210;28;20725;-78
2022/05/18 05:52:09;;;;;;;3.33;1.60;;;20.90;61.10;;;;;;5034687;28;20540;-78
2022/05/18 05:54:35;;;;;;;5.03;1.50;;;21.00;61.20;;;;;;5041900;28;20094;-79
2022/05/18 05:57:04;;;;;;;2.45;1.42;;;21.10;61.20;;;;;;5052575;28;20029;-78
2022/05/18 05:59:31;;;;;;;2.70;1.48;;;21.20;61.20;;;;;;5042960;28;20020;-78
2022/05/18 06:02:02;;;;;;;3.80;1.70;;;21.30;61.30;;;;;;5068192;28;20105;-78
2022/05/18 06:04:35;;;;;;;2.22;1.40;;;21.40;61.50;;;;;;5039086;28;20048;-78
2022/05/18 06:07:02;;;;;;;2.58;1.45;;;21.60;61.70;;;;;;5025898;28;20057;-78
2022/05/18 06:09:28;;;;;;;3.60;1.60;;;21.60;61.20;;;;;;5036102;28;20247;-78
2022/05/18 06:11:54;;;;;;;3.27;1.60;;;21.80;61.30;;;;;;5053902;28;20041;-78
2022/05/18 06:14:19;;;;;;;2.75;1.70;;;21.90;61.30;;;;;;5057737;28;20032;-78
2022/05/18 06:16:48;;;;;;;2.47;1.67;;;22.00;61.20;;;;;;5061433;28;20048;-78
2022/05/18 06:19:16;;;;;;;2.93;1.70;;;22.10;61.00;;;;;;5041273;28;20282;-78
2022/05/18 06:21:42;;;;;;;7.28;1.92;;;22.10;60.90;;;;;;5050052;28;20044;-78
2022/05/18 06:24:09;;;;;;;4.07;1.70;;;22.20;60.90;;;;;;5038206;28;20039;-78
2022/05/18 06:26:36;;;;;;;4.03;1.80;;;22.20;60.80;;;;;;5035011;28;20157;-78
2022/05/18 06:29:02;;;;;;;4.85;1.95;;;22.30;60.80;;;;;;5050629;28;20040;-78
2022/05/18 06:31:28;;;;;;;3.93;1.83;;;22.30;60.80;;;;;;5056084;28;20040;-78
2022/05/18 06:33:54;;;;;;;3.67;1.88;;;22.30;60.80;;;;;;5063334;28;20033;-78
2022/05/18 06:36:19;;;;;;;2.50;1.90;;;22.40;60.90;;;;;;5059037;28;21018;-78
2022/05/18 06:38:45;;;;;;;3.05;1.90;;;22.40;61.10;;;;;;5060827;28;20035;-78
2022/05/18 06:41:23;;;;;;;5.17;2.10;;;22.50;61.20;;;;;;5053087;28;20067;-78
2022/05/18 06:44:02;;;;;;;2.97;1.80;;;22.60;61.30;;;;;;5057628;28;20685;-78
2022/05/18 06:46:30;;;;;;;3.70;1.83;;;22.60;62.40;;;;;;5067880;28;20473;-78
2022/05/18 06:48:56;;;;;;;3.00;2.05;;;22.70;61.40;;;;;;5034993;28;20267;-78
2022/05/18 06:51:31;;;;;;;4.00;1.67;;;22.80;61.50;;;;;;5022960;28;20033;-78
2022/05/18 06:53:58;;;;;;;4.13;2.13;;;22.90;62.10;;;;;;5046152;28;20047;-78
2022/05/18 06:56:29;;;;;;;4.00;2.28;;;23.00;61.70;;;;;;5065716;28;20472;-78
2022/05/18 06:58:55;;;;;;;2.67;2.00;;;23.10;61.90;;;;;;5032539;28;20593;-78
2022/05/18 07:01:22;;;;;;;3.63;2.10;;;23.20;61.50;;;;;;5063874;28;20047;-78
2022/05/18 07:03:48;;;;;;;2.43;1.90;;;23.20;61.20;;;;;;5048418;28;20044;-78
2022/05/18 07:06:17;;;;;;;2.78;2.10;;;23.30;61.10;;;;;;5039480;28;20414;-78
2022/05/18 07:08:42;;;;;;;3.22;2.28;;;23.40;61.00;;;;;;5045854;28;21643;-78
2022/05/18 07:11:08;;;;;;;3.27;2.10;;;23.40;60.80;;;;;;5068337;28;20648;-78
2022/05/18 07:13:35;;;;;;;4.22;2.08;;;23.50;60.80;;;;;;5050417;28;20051;-78
2022/05/18 07:16:02;;;;;;;3.30;2.33;;;23.50;60.90;;;;;;5057269;28;20663;-78
2022/05/18 07:18:30;;;;;;;3.72;2.38;;;23.60;60.80;;;;;;5046425;28;20054;-78
2022/05/18 07:20:57;;;;;;;3.53;2.00;;;23.70;60.60;;;;;;5028604;28;20071;-78
2022/05/18 07:23:25;;;;;;;3.43;1.93;;;23.70;60.60;;;;;;5069465;28;20036;-78
2022/05/18 07:25:52;;;;;;;2.50;1.98;;;23.70;60.40;;;;;;5050456;28;20048;-78
2022/05/18 07:28:17;;;;;;;2.05;1.63;;;23.80;60.40;;;;;;5033223;28;20046;-78
2022/05/18 07:30:43;;;;;;;3.03;2.10;;;23.80;60.30;;;;;;5025844;28;20035;-78
2022/05/18 07:33:09;;;;;;;3.90;2.05;;;23.90;60.60;;;;;;5064092;28;20122;-78
2022/05/18 07:35:34;;;;;;;4.88;2.10;;;24.00;60.90;;;;;;5056734;28;20071;-78
2022/05/18 07:38:01;;;;;;;3.10;1.90;;;24.10;61.20;;;;;;5026308;28;20086;-78
2022/05/18 07:40:28;;;;;;;2.58;1.80;;;24.30;61.20;;;;;;5044806;28;20040;-78
2022/05/18 07:42:56;;;;;;;2.97;1.88;;;24.50;61.00;;;;;;5034738;28;20028;-78
2022/05/18 07:45:25;;;;;;;4.65;2.10;;;24.60;60.50;;;;;;5052038;28;20036;-78
2022/05/18 07:47:54;;;;;;;2.17;1.70;;;24.80;60.10;;;;;;5055360;28;20029;-78
2022/05/18 07:50:24;;;;;;;3.20;1.85;;;24.90;60.10;;;;;;5044243;28;20174;-79
2022/05/18 07:52:52;;;;;;;2.80;1.70;;;25.00;60.00;;;;;;5029860;28;20036;-78
2022/05/18 07:55:19;;;;;;;3.30;1.85;;;25.20;59.70;;;;;;5055464;28;20039;-78
2022/05/18 07:57:44;;;;;;;2.78;1.77;;;25.30;59.20;;;;;;5069668;28;20181;-78
2022/05/18 08:00:12;;;;;;;2.60;1.97;;;25.40;59.00;;;;;;5054917;28;20064;-78
2022/05/18 08:02:38;;;;;;;2.03;1.50;;;25.50;58.90;;;;;;5077368;28;20119;-78
2022/05/18 08:05:05;;;;;;;2.20;1.50;;;25.60;59.20;;;;;;5062081;28;20040;-78
2022/05/18 08:07:31;;;;;;;3.27;1.50;;;25.70;59.30;;;;;;5077943;28;20101;-79
2022/05/18 08:15:25;;;;;;;3.40;1.70;;;26.50;59.80;;;;;;5053996;28;20041;-78
2022/05/18 08:17:51;;;;;;;2.50;1.80;;;26.90;60.00;;;;;;5058443;28;20043;-78
2022/05/18 08:20:20;;;;;;;3.45;1.50;;;27.30;60.20;;;;;;5079731;28;20590;-80
2022/05/18 08:22:46;;;;;;;1.70;1.40;;;27.70;59.90;;;;;;5069745;28;20044;-79
2022/05/18 08:25:13;;;;;;;2.43;1.40;;;28.20;59.50;;;;;;5019286;28;20075;-79
2022/05/18 08:27:45;;;;;;;3.20;1.52;;;28.50;58.60;;;;;;5058085;28;20062;-79
2022/05/18 08:30:13;;;;;;;2.72;1.50;;;28.90;57.00;;;;;;5049322;28;20056;-78
2022/05/18 08:32:39;;;;;;;1.50;1.20;;;29.30;57.10;;;;;;5054381;28;20109;-80
2022/05/18 08:35:05;;;;;;;1.20;1.10;;;29.70;56.50;;;;;;5066692;28;20037;-80
2022/05/18 08:37:46;;;;;;;4.43;1.10;;;30.00;56.00;;;;;;5048896;28;20025;-79
2022/05/18 08:40:25;;;;;;;1.80;1.10;;;30.40;54.30;;;;;;5051376;28;20040;-79
2022/05/18 08:42:51;;;;;;;1.25;1.00;;;30.90;53.80;;;;;;5031117;28;20120;-78
2022/05/18 08:45:18;;;;;;;1.17;1.00;;;31.30;54.30;;;;;;5089014;28;20060;-80
2022/05/18 08:47:52;;;;;;;1.40;1.20;;;31.70;53.50;;;;;;5066943;28;20050;-80
2022/05/18 08:50:20;;;;;;;2.25;1.13;;;32.10;51.90;;;;;;5050432;28;20039;-80
2022/05/18 08:53:10;;;;;;;1.20;1.10;;;32.50;51.70;;;;;;5084182;28;20500;-79
2022/05/18 08:55:38;;;;;;;1.27;0.98;;;32.90;49.00;;;;;;5067936;28;20142;-79
2022/05/18 08:58:27;;;;;;;2.10;1.10;;;33.20;50.70;;;;;;5062933;28;20383;-79
2022/05/18 09:00:59;;;;;;;1.85;1.48;;;33.60;48.90;;;;;;5034133;28;20326;-80
2022/05/18 09:03:33;;;;;;;1.23;0.93;;;33.90;47.30;;;;;;5073358;28;20400;-79
2022/05/18 09:06:11;;;;;;;1.10;1.00;;;34.20;46.10;;;;;;5045503;28;20364;-79
2022/05/18 09:08:42;;;;;;;1.13;1.00;;;34.40;44.70;;;;;;5075105;28;20033;-79
2022/05/18 09:11:20;;;;;;;1.10;1.00;;;34.50;44.80;;;;;;5056539;28;20037;-79
2022/05/18 09:13:47;;;;;;;1.35;1.17;;;34.50;44.20;;;;;;5057991;28;20041;-79
2022/05/18 09:16:27;;;;;;;1.40;1.13;;;34.50;44.40;;;;;;5051373;28;20045;-79
2022/05/18 09:19:02;;;;;;;1.20;1.00;;;34.50;42.40;;;;;;5043891;28;20063;-79
2022/05/18 09:21:43;;;;;;;1.35;1.25;;;34.60;44.20;;;;;;5051936;28;20079;-80
2022/05/18 09:24:37;;;;;;;0.90;0.90;;;34.90;42.20;;;;;;5065586;28;20054;-79
2022/05/18 09:27:30;;;;;;;1.67;1.25;;;35.00;43.80;;;;;;5038588;28;20079;-79
2022/05/18 09:30:33;;;;;;;1.40;1.30;;;35.30;43.60;;;;;;5028701;28;20378;-79
2022/05/18 09:33:27;;;;;;;1.85;1.38;;;35.70;41.10;;;;;;5054599;28;20056;-80
2022/05/18 09:35:55;;;;;;;2.35;1.85;;;36.10;40.60;;;;;;5051623;28;20253;-80
2022/05/18 09:39:09;;;;;;;1.57;1.30;;;36.50;41.30;;;;;;5066014;28;20037;-79
2022/05/18 09:41:44;;;;;;;1.52;1.40;;;36.80;39.40;;;;;;5018549;28;20025;-80
2022/05/18 09:44:23;;;;;;;1.80;1.70;;;37.10;39.40;;;;;;5060438;28;20477;-79
2022/05/18 09:46:50;;;;;;;1.60;1.48;;;37.20;38.10;;;;;;5039615;28;20355;-79
2022/05/18 09:49:23;;;;;;;1.75;1.52;;;37.40;39.00;;;;;;5059832;28;20097;-80
2022/05/18 09:51:51;;;;;;;1.57;1.47;;;37.50;38.20;;;;;;5046987;28;20029;-79
2022/05/18 09:54:16;;;;;;;1.90;1.40;;;37.60;38.00;;;;;;5053836;28;20035;-79
2022/05/18 09:56:55;;;;;;;1.73;1.30;;;37.80;37.80;;;;;;5033721;28;20436;-79
2022/05/18 09:59:28;;;;;;;1.47;1.37;;;37.90;36.50;;;;;;5055176;28;20028;-79
2022/05/18 10:07:28;;;;;;;1.40;1.30;;;38.50;35.90;;;;;;5066827;28;20041;-81
2022/05/18 10:10:23;;;;;;;1.95;1.40;;;38.60;35.30;;;;;;5043190;28;20032;-80
2022/05/18 10:13:03;;;;;;;1.97;1.10;;;38.80;33.80;;;;;;5029151;28;20055;-80
2022/05/18 10:15:48;;;;;;;1.38;1.27;;;38.90;33.00;;;;;;5063723;28;20079;-79
2022/05/18 10:18:29;;;;;;;1.60;1.38;;;39.10;32.90;;;;;;5046880;28;20029;-80
2022/05/18 10:21:13;;;;;;;1.40;1.30;;;39.10;32.60;;;;;;5047014;28;20346;-80
2022/05/18 10:23:59;;;;;;;1.50;1.40;;;39.20;32.00;;;;;;5050789;28;20033;-79
2022/05/18 10:26:40;;;;;;;1.00;1.00;;;39.30;31.70;;;;;;5033270;28;20110;-80
2022/05/18 10:29:07;;;;;;;1.52;1.17;;;39.30;31.60;;;;;;5052739;28;20436;-81
2022/05/18 10:31:43;;;;;;;1.67;1.58;;;39.30;32.80;;;;;;5087919;28;20620;-80
2022/05/18 10:34:23;;;;;;;1.40;1.30;;;39.50;32.10;;;;;;5064200;28;20063;-80
2022/05/18 10:36:58;;;;;;;1.63;1.52;;;39.50;31.20;;;;;;5051193;28;20044;-80
2022/05/18 10:39:40;;;;;;;1.40;1.30;;;39.60;31.90;;;;;;5078702;28;20617;-79
2022/05/18 10:42:15;;;;;;;1.58;1.23;;;39.70;30.80;;;;;;5049798;28;20037;-80
2022/05/18 10:44:43;;;;;;;1.73;1.63;;;39.80;30.90;;;;;;5050339;28;20032;-80
2022/05/18 10:47:21;;;;;;;1.50;1.40;;;40.00;32.00;;;;;;5053496;28;20037;-79
2022/05/18 10:49:47;;;;;;;1.70;1.60;;;40.20;30.60;;;;;;5045163;28;20029;-80
2022/05/18 10:52:18;;;;;;;1.50;1.40;;;40.30;31.00;;;;;;5040919;28;20139;-81
2022/05/18 10:55:16;;;;;;;1.60;1.40;;;40.40;31.00;;;;;;5051578;28;20366;-80
2022/05/18 10:57:58;;;;;;;2.53;1.70;;;40.50;29.80;;;;;;5059068;28;20032;-81
2022/05/18 11:00:50;;;;;;;2.33;1.63;;;40.60;29.80;;;;;;5045463;28;20031;-82
2022/05/18 11:03:25;;;;;;;2.00;1.80;;;40.60;29.40;;;;;;5025957;28;20642;-80
2022/05/18 11:05:58;;;;;;;1.50;1.40;;;40.60;29.40;;;;;;5047585;28;20051;-80
2022/05/18 11:08:28;;;;;;;1.70;1.38;;;40.80;29.40;;;;;;5027871;28;20037;-80
2022/05/18 11:11:42;;;;;;;2.03;1.83;;;40.80;29.60;;;;;;5063560;28;20036;-82
2022/05/18 11:14:30;;;;;;;1.67;1.58;;;40.90;29.00;;;;;;5023589;28;20044;-80
2022/05/18 11:17:06;;;;;;;1.60;1.50;;;41.00;29.00;;;;;;5053158;28;20036;-82
2022/05/18 11:19:50;;;;;;;1.50;1.40;;;41.10;29.10;;;;;;5020730;28;20580;-80
2022/05/18 11:22:18;;;;;;;1.88;1.40;;;41.20;29.40;;;;;;5034619;28;20025;-80
2022/05/18 11:24:49;;;;;;;2.15;1.73;;;41.40;29.00;;;;;;5059269;28;20331;-80
2022/05/18 11:27:39;;;;;;;1.95;1.75;;;41.40;28.70;;;;;;5068763;28;20530;-80
2022/05/18 11:30:22;;;;;;;2.00;1.90;;;41.50;29.30;;;;;;5057960;28;20087;-80
2022/05/18 11:33:13;;;;;;;1.93;1.83;;;41.50;27.90;;;;;;5038950;28;20033;-80
2022/05/18 11:36:03;;;;;;;1.88;1.77;;;41.70;28.00;;;;;;5039503;28;20277;-82
2022/05/18 11:38:35;;;;;;;1.60;1.50;;;41.70;27.40;;;;;;5037737;28;20032;-79
2022/05/18 11:41:22;;;;;;;1.55;1.40;;;41.70;27.60;;;;;;5054258;28;20025;-80
2022/05/18 11:44:08;;;;;;;1.67;1.58;;;41.70;27.20;;;;;;5060509;28;20330;-81
2022/05/18 11:46:57;;;;;;;1.57;1.40;;;41.60;27.30;;;;;;5041941;28;20130;-82
2022/05/18 11:49:24;;;;;;;2.08;1.33;;;41.60;27.10;;;;;;5040284;28;20036;-80
2022/05/18 11:52:16;;;;;;;1.98;1.75;;;41.50;27.90;;;;;;5045051;28;20032;-80
2022/05/18 11:54:53;;;;;;;1.65;1.50;;;41.50;27.70;;;;;;5041647;28;20052;-80
2022/05/18 11:57:38;;;;;;;1.90;1.80;;;41.60;27.20;;;;;;5074650;28;20428;-81
2022/05/18 12:00:30;;;;;;;1.50;1.40;;;41.60;26.70;;;;;;5067124;28;20101;-82
2022/05/18 12:03:14;;;;;;;2.28;1.77;;;41.60;27.20;;;;;;5069141;28;20138;-80
2022/05/18 12:05:58;;;;;;;1.80;1.70;;;41.70;26.70;;;;;;5047363;28;20266;-80
2022/05/18 12:08:50;;;;;;;2.20;1.80;;;41.70;26.80;;;;;;5065103;28;20043;-79
2022/05/18 12:11:47;;;;;;;1.70;1.60;;;41.70;26.70;;;;;;5054067;28;20070;-82
2022/05/18 12:14:18;;;;;;;2.20;2.00;;;41.70;26.50;;;;;;5045703;28;20040;-80
2022/05/18 12:16:56;;;;;;;1.90;1.50;;;41.50;26.80;;;;;;5040292;28;20343;-81
2022/05/18 12:19:51;;;;;;;1.88;1.67;;;41.40;26.50;;;;;;5059148;28;20079;-82
2022/05/18 12:22:29;;;;;;;1.65;1.50;;;41.30;26.50;;;;;;5019074;28;20087;-81
2022/05/18 12:24:55;;;;;;;2.13;1.30;;;41.20;26.90;;;;;;5040415;28;20036;-80
2022/05/18 12:27:23;;;;;;;1.90;1.40;;;41.20;27.80;;;;;;5058104;28;20043;-80
2022/05/18 12:29:52;;;;;;;4.07;1.75;;;41.20;27.10;;;;;;5064126;28;20514;-80
2022/05/18 12:32:19;;;;;;;2.08;1.70;;;41.20;27.00;;;;;;5018689;28;20110;-80
2022/05/18 12:35:16;;;;;;;1.67;1.58;;;41.20;26.80;;;;;;5059496;28;20182;-80
2022/05/18 12:38:19;;;;;;;1.88;1.67;;;41.20;26.30;;;;;;5065232;28;20024;-80
2022/05/18 12:41:06;;;;;;;1.53;1.43;;;41.20;26.40;;;;;;5068943;28;20583;-80
2022/05/18 12:43:44;;;;;;;1.60;1.50;;;41.10;26.30;;;;;;5065886;28;20040;-80
2022/05/18 12:46:16;;;;;;;1.45;1.35;;;41.00;26.70;;;;;;5064732;28;20040;-79
2022/05/18 12:48:56;;;;;;;1.38;1.27;;;41.00;26.60;;;;;;5053883;28;20033;-80
2022/05/18 12:51:30;;;;;;;1.75;1.48;;;41.00;26.60;;;;;;5037076;28;20636;-81
2022/05/18 12:54:05;;;;;;;2.40;1.73;;;41.00;26.60;;;;;;5028775;28;20063;-81
2022/05/18 12:56:37;;;;;;;1.80;1.70;;;41.10;26.80;;;;;;5037673;28;20028;-81
2022/05/18 12:59:15;;;;;;;2.10;1.40;;;41.20;26.40;;;;;;5057755;28;20059;-80
2022/05/18 13:01:44;;;;;;;1.60;1.50;;;41.10;26.30;;;;;;5045918;28;20070;-81
2022/05/18 13:04:09;;;;;;;1.80;1.70;;;41.10;26.70;;;;;;5047600;28;20039;-80
2022/05/18 13:06:44;;;;;;;2.07;1.40;;;41.00;26.80;;;;;;5062512;28;20063;-81
2022/05/18 13:09:25;;;;;;;1.60;1.50;;;41.00;26.30;;;;;;5061773;28;20041;-80
2022/05/18 13:12:22;;;;;;;1.65;1.55;;;41.00;26.40;;;;;;5055944;28;20123;-80
2022/05/18 13:15:03;;;;;;;2.17;1.30;;;41.00;26.40;;;;;;5050472;28;20040;-80
2022/05/18 13:17:46;;;;;;;1.90;1.48;;;41.00;26.30;;;;;;5065059;28;20043;-80
2022/05/18 13:20:24;;;;;;;1.48;1.38;;;40.90;26.10;;;;;;5039153;28;20268;-83
2022/05/18 13:23:03;;;;;;;1.83;1.65;;;40.80;26.40;;;;;;5051223;28;20032;-82
2022/05/18 13:25:33;;;;;;;1.73;1.40;;;40.70;25.90;;;;;;5054582;28;20031;-82
2022/05/18 13:28:02;;;;;;;1.40;1.27;;;40.60;26.60;;;;;;5063817;28;20039;-80